Atlantis Armona — 9HA2518 — position and weather

sailwx.info

Track history (hours):
 
Tides and Currents Weather Stations Pressure Air Temp Water Temp Dewpoint Dewpoint Depression Visibility Wind Speed Wind Dir Waves Ship Positions

Atlantis Armona

Last reported at 2018-May-25 09:40 UTC. Time now 2018-May-27 03:06 UTC.
Position N 37°36' W 000°07'.

Length 92 m; draft 5.3 m.

Type: Tanker. MMSI: 248793000.

Date/timePositionNaut miles runAvg speedWind from/ knotsBaromVisibWave heightAir tempDewpointWater temp
2018-May-25 09:40N 37°36' W 000°07'511.0
2018-May-25 09:15N 37°36' W 000°12'311.2
2018-May-25 09:00N 37°35' W 000°16'510.7
2018-May-25 08:30N 37°35' W 000°23'510.1
2018-May-25 08:00N 37°35' W 000°29'4 8.8
2018-May-25 07:30N 37°32' W 000°33'5 9.3
2018-May-25 07:00N 37°31' W 000°39'4 8.8
2018-May-25 06:30N 37°31' W 000°44'4 8.5
2018-May-25 05:59N 37°31' W 000°50'2 4.3
2018-May-25 05:30N 37°31' W 000°52'4 8.7
2018-May-25 05:00N 37°32' W 000°58'3 0.2
2018-May-24 15:59N 37°34' W 000°60'1 2.3
2018-May-24 15:30N 37°33' W 001°01'1 2.8
2018-May-24 15:00N 37°32' W 001°02'1 2.3
2018-May-24 14:30N 37°32' W 001°04'2 3.3
2018-May-24 13:57N 37°33' W 001°06'4 0.6
2018-May-24 07:36N 37°32' W 001°01'110.5
2018-May-24 07:31N 37°32' W 000°60'510.2
2018-May-24 07:00N 37°31' W 000°53'510.3
2018-May-24 06:31N 37°31' W 000°47'5 9.8
2018-May-24 06:01N 37°32' W 000°41'5 9.5
2018-May-24 05:31N 37°33' W 000°35'5 9.7
2018-May-24 05:01N 37°37' W 000°31'5 9.9
2018-May-24 04:31N 37°41' W 000°28'5 9.9
2018-May-24 04:00N 37°45' W 000°24'511.0
2018-May-24 03:31N 37°50' W 000°20'611.2
2018-May-24 02:57N 37°55' W 000°16'511.3
2018-May-24 02:31N 37°59' W 000°13'611.4
2018-May-24 01:57N 38°05' W 000°08'711.3
2018-May-24 01:22N 38°10' W 000°04'510.7
2018-May-24 00:56N 38°14' W 000°00'611.0
2018-May-24 00:22N 38°19' E 000°04'411.2
2018-May-24 00:01N 38°23' E 000°06'611.1
2018-May-23 23:31N 38°27' E 000°11'611.1
2018-May-23 23:00N 38°32' E 000°15'511.1
2018-May-23 22:30N 38°37' E 000°18'1310.7
2018-May-23 21:17N 38°47' E 000°29'410.8
2018-May-23 20:56N 38°50' E 000°32'410.7
2018-May-23 20:31N 38°53' E 000°36'610.5
2018-May-23 19:59N 38°57' E 000°41'510.4
2018-May-23 19:31N 39°00' E 000°46'510.4
2018-May-23 19:00N 39°04' E 000°50'510.5
2018-May-23 18:31N 39°08' E 000°55'510.6
2018-May-23 18:01N 39°11' E 001°00'910.6
2018-May-23 17:11N 39°18' E 001°08'510.7
2018-May-23 16:44N 39°21' E 001°12'  
2018-May-21 08:14N 43°06' E 005°59'0 0.0
2018-May-21 06:34N 43°06' E 005°59'0 0.0
2018-May-21 06:08N 43°06' E 005°59'0 0.0
2018-May-21 05:59N 43°06' E 005°59'0 0.0
2018-May-21 05:25N 43°06' E 005°59'0 0.0
2018-May-21 04:31N 43°06' E 005°59'0 0.2
2018-May-21 04:28N 43°06' E 005°59'0 0.0
2018-May-21 02:37N 43°06' E 005°59'0 0.0
2018-May-21 02:08N 43°06' E 005°59'0 0.0
2018-May-21 01:55N 43°06' E 005°59'0 0.0
2018-May-21 01:29N 43°06' E 005°59'0 0.0
2018-May-21 00:28N 43°06' E 005°59'0 0.0
2018-May-20 23:59N 43°06' E 005°59'0 0.0
2018-May-20 23:28N 43°06' E 005°59'0 0.0
2018-May-20 22:58N 43°06' E 005°59'0 0.0
2018-May-20 22:28N 43°06' E 005°59'0 0.0
2018-May-20 21:58N 43°06' E 005°59'0 0.0
2018-May-20 21:25N 43°06' E 005°59'0 0.0
2018-May-20 20:58N 43°06' E 005°59'0 0.1
2018-May-20 20:26N 43°06' E 005°59'0 0.1
2018-May-20 19:55N 43°06' E 005°59'0 0.0
2018-May-20 19:19N 43°06' E 005°59'0 0.0
2018-May-20 18:58N 43°06' E 005°59'0 0.0
2018-May-20 18:25N 43°06' E 005°59'0 0.1
2018-May-20 17:58N 43°06' E 005°59'0 0.0
2018-May-20 17:28N 43°06' E 005°59'0 0.0
2018-May-20 16:58N 43°06' E 005°59'0 0.0
2018-May-20 16:25N 43°06' E 005°59'0 0.0
2018-May-20 15:58N 43°06' E 005°59'0 0.0
2018-May-20 15:28N 43°06' E 005°59'0 0.0
2018-May-20 14:58N 43°06' E 005°59'0 0.0
2018-May-20 14:13N 43°06' E 005°59'0 0.0
2018-May-20 13:52N 43°06' E 005°59'0 0.0
2018-May-20 13:28N 43°06' E 005°59'0 0.0
2018-May-20 12:58N 43°06' E 005°59'0 0.0
2018-May-20 12:19N 43°06' E 005°59'0 0.0
2018-May-20 11:43N 43°06' E 005°59'0 0.0
2018-May-20 11:17N 43°06' E 005°59'0 0.0
2018-May-20 10:52N 43°06' E 005°59'0 0.0
2018-May-20 10:28N 43°06' E 005°59'0 0.0
2018-May-20 09:25N 43°06' E 005°59'0 0.0
2018-May-20 08:55N 43°06' E 005°59'0 0.0
2018-May-20 08:28N 43°06' E 005°59'0 0.1
2018-May-20 07:58N 43°06' E 005°59'0 0.0
2018-May-20 07:22N 43°06' E 005°59'0 0.0
2018-May-20 06:49N 43°06' E 005°59'0 0.0
2018-May-20 03:08N 43°06' E 005°59'0 0.0
2018-May-20 01:50N 43°06' E 005°59'0 0.0
2018-May-20 01:29N 43°06' E 005°59'0 0.0
2018-May-20 00:09N 43°06' E 005°59'0 0.0
2018-May-19 23:50N 43°06' E 005°59'0 0.0
2018-May-19 23:29N 43°06' E 005°59'0 0.0
2018-May-19 22:59N 43°06' E 005°59'0 0.1
2018-May-19 22:29N 43°06' E 005°59'0 0.0
2018-May-19 20:02N 43°06' E 005°59'0 0.1
2018-May-19 19:56N 43°06' E 005°59'0 0.0
2018-May-19 19:28N 43°06' E 005°59'0 0.0
2018-May-19 18:58N 43°06' E 005°59'0 0.0
2018-May-19 18:29N 43°06' E 005°59'0 0.0
2018-May-19 17:20N 43°06' E 005°59'0 0.0
2018-May-19 16:49N 43°06' E 005°59'0 0.0
2018-May-19 16:01N 43°06' E 005°59'0 0.0
2018-May-19 15:59N 43°06' E 005°59'0 0.0
2018-May-19 15:13N 43°06' E 005°59'0 0.0
2018-May-19 14:59N 43°06' E 005°59'0 0.0
2018-May-19 14:28N 43°06' E 005°59'0 0.0
2018-May-19 13:59N 43°06' E 005°59'0 0.0
2018-May-19 11:49N 43°06' E 005°59'0 0.0
2018-May-19 11:28N 43°06' E 005°59'0 0.0
2018-May-19 10:55N 43°06' E 005°59'0 0.0
2018-May-19 10:26N 43°06' E 005°59'0 0.0
2018-May-19 09:43N 43°06' E 005°59'0 0.1
2018-May-19 09:20N 43°06' E 005°59'0 0.0
2018-May-19 08:44N 43°06' E 005°59'0 0.2
2018-May-19 08:26N 43°06' E 005°59'0 0.0
2018-May-19 07:59N 43°06' E 005°59'0 0.0
2018-May-19 07:28N 43°06' E 005°59'0 0.1
2018-May-19 06:46N 43°06' E 005°59'0 0.0
2018-May-19 06:11N 43°06' E 005°59'0 0.1
2018-May-19 05:56N 43°06' E 005°59'0 0.1
2018-May-19 05:23N 43°06' E 005°59'0 0.0
2018-May-19 04:58N 43°06' E 005°59'0 0.1
2018-May-19 04:13N 43°06' E 005°59'0 0.0
2018-May-19 03:55N 43°06' E 005°59'0 0.1
2018-May-19 03:17N 43°06' E 005°59'0 0.1
2018-May-19 02:59N 43°06' E 005°59'0 0.1
2018-May-19 02:29N 43°06' E 005°59'0 0.0
2018-May-19 00:38N 43°06' E 005°59'0 0.0
2018-May-19 00:26N 43°06' E 005°59'0 0.0
2018-May-18 23:19N 43°06' E 005°59'0 0.0
2018-May-18 22:56N 43°06' E 005°59'0 0.0
2018-May-18 22:20N 43°06' E 005°59'0 0.1
2018-May-18 21:59N 43°06' E 005°59'0 0.0
2018-May-18 21:29N 43°06' E 005°59'0 0.0
2018-May-18 20:55N 43°06' E 005°59'0 0.1
2018-May-18 20:29N 43°06' E 005°59'0 0.0
2018-May-18 19:58N 43°06' E 005°59'0 0.0
2018-May-18 19:29N 43°06' E 005°59'0 0.0
2018-May-18 18:50N 43°06' E 005°59'0 0.0
2018-May-18 18:23N 43°06' E 005°59'0 0.0
2018-May-18 17:56N 43°06' E 005°59'0 0.1
2018-May-18 17:29N 43°06' E 005°59'0 0.0
2018-May-18 16:55N 43°06' E 005°59'0 0.0
2018-May-18 16:29N 43°06' E 005°59'0 0.0
2018-May-18 15:59N 43°06' E 005°59'0 0.0
2018-May-18 15:19N 43°06' E 005°59'0 0.0
2018-May-18 14:55N 43°06' E 005°59'0 0.0
2018-May-18 14:29N 43°06' E 005°59'0 0.0
2018-May-18 13:58N 43°06' E 005°59'0 0.0
2018-May-18 13:29N 43°06' E 005°59'0 0.0
2018-May-18 11:20N 43°06' E 005°59'0 0.0
2018-May-18 08:44N 43°06' E 005°59'0 0.0
2018-May-18 07:46N 43°06' E 005°59'0 0.0
2018-May-18 06:58N 43°06' E 005°59'0 0.0
2018-May-18 06:17N 43°06' E 005°59'0 0.0
2018-May-18 05:40N 43°06' E 005°59'0 0.0
2018-May-18 05:28N 43°06' E 005°59'0 0.0
2018-May-18 04:55N 43°06' E 005°59'0 0.1
2018-May-18 04:25N 43°06' E 005°59'0 0.0
2018-May-18 03:56N 43°06' E 005°59'0 0.0
2018-May-18 03:25N 43°06' E 005°59'0 0.0
2018-May-18 02:56N 43°06' E 005°59'0 0.1
2018-May-18 02:23N 43°06' E 005°59'0 0.0
2018-May-18 01:58N 43°06' E 005°59'0 0.1
2018-May-18 01:28N 43°06' E 005°59'0 0.1
2018-May-18 00:43N 43°06' E 005°59'0 0.0
2018-May-18 00:23N 43°06' E 005°59'0 0.1
2018-May-17 23:58N 43°06' E 005°59'0 0.0
2018-May-17 23:25N 43°06' E 005°59'0 0.0
2018-May-17 22:53N 43°06' E 005°59'0 0.0
2018-May-17 22:13N 43°06' E 005°59'0 0.0
2018-May-17 21:58N 43°06' E 005°59'0 0.0
2018-May-17 21:28N 43°06' E 005°59'0 0.0
2018-May-17 20:17N 43°06' E 005°59'0 0.0
2018-May-17 19:32N 43°06' E 005°59'0 0.1
2018-May-17 19:28N 43°06' E 005°59'0 0.0
2018-May-17 18:59N 43°06' E 005°59'0 0.0
2018-May-17 18:25N 43°06' E 005°59'0 0.0
2018-May-17 17:58N 43°06' E 005°59'0 0.0
2018-May-17 17:17N 43°06' E 005°59'0 0.0
2018-May-17 16:59N 43°06' E 005°59'0 0.0
2018-May-17 16:08N 43°06' E 005°59'0 0.1
2018-May-17 15:59N 43°06' E 005°59'0 0.0
2018-May-17 15:28N 43°06' E 005°59'0 0.0
2018-May-17 14:55N 43°06' E 005°59'0 0.0
2018-May-17 14:28N 43°06' E 005°59'0 0.0
2018-May-17 13:56N 43°06' E 005°59'0 0.0
2018-May-17 13:29N 43°06' E 005°59'0 0.0
2018-May-17 06:49N 43°06' E 005°59'0 0.0
2018-May-17 06:19N 43°06' E 005°59'0 0.0
2018-May-17 04:20N 43°06' E 005°59'0 0.0
2018-May-17 02:43N 43°06' E 005°59'0 0.0
2018-May-17 02:29N 43°06' E 005°59'0 0.0
2018-May-17 01:56N 43°06' E 005°59'0 0.0
2018-May-17 01:23N 43°06' E 005°59'0 0.0
2018-May-17 00:59N 43°06' E 005°59'0 0.0
2018-May-17 00:14N 43°06' E 005°59'0 0.0
2018-May-16 23:38N 43°06' E 005°59'0 0.0
2018-May-16 21:37N 43°06' E 005°59'0 0.1
2018-May-16 21:26N 43°06' E 005°59'0 0.0
2018-May-16 20:23N 43°06' E 005°59'0 0.0
2018-May-16 19:58N 43°06' E 005°59'0 0.0
2018-May-16 16:52N 43°06' E 005°59'0 0.0
2018-May-16 16:29N 43°06' E 005°59'0 0.0
2018-May-16 15:50N 43°06' E 005°59'0 0.0
2018-May-16 15:26N 43°06' E 005°59'0 0.0
2018-May-16 14:58N 43°06' E 005°59'0 0.0
2018-May-16 14:28N 43°06' E 005°59'0 0.0
2018-May-16 13:11N 43°06' E 005°59'0 0.0
2018-May-16 12:53N 43°06' E 005°59'0 0.0
2018-May-16 12:23N 43°06' E 005°59'0 0.0
2018-May-16 11:59N 43°06' E 005°59'0 0.0
2018-May-16 11:26N 43°06' E 005°59'0 0.0
2018-May-16 10:59N 43°06' E 005°59'0 0.0
2018-May-16 10:26N 43°06' E 005°59'0 0.0
2018-May-16 09:56N 43°06' E 005°59'0 0.0
2018-May-16 08:31N 43°06' E 005°59'0 0.1
2018-May-16 08:29N 43°06' E 005°59'0 0.0
2018-May-16 07:59N 43°06' E 005°59'0 0.0
2018-May-16 06:10N 43°06' E 005°59'0 0.0
2018-May-16 05:55N 43°06' E 005°59'0 0.0
2018-May-16 05:29N 43°06' E 005°59'0 0.0
2018-May-16 04:55N 43°06' E 005°59'0 0.0
2018-May-16 04:11N 43°06' E 005°59'0 0.0
2018-May-16 03:53N 43°06' E 005°59'0 0.0
2018-May-16 03:29N 43°06' E 005°59'0 0.0
2018-May-16 02:59N 43°06' E 005°59'0 0.0
2018-May-16 02:29N 43°06' E 005°59'0 0.0
2018-May-16 01:59N 43°06' E 005°59'0 0.0
2018-May-16 01:25N 43°06' E 005°59'0 0.0
2018-May-15 19:56N 43°06' E 005°59'0 0.0
2018-May-15 18:50N 43°06' E 005°59'0 0.4
2018-May-15 18:28N 43°06' E 005°59'0 0.1
2018-May-15 17:56N 43°06' E 005°59'0 0.0
2018-May-15 17:29N 43°06' E 005°59'0 0.0
2018-May-15 16:58N 43°06' E 005°59'0 0.0
2018-May-15 16:28N 43°06' E 005°59'0 0.0
2018-May-15 15:52N 43°06' E 005°59'0 0.0
2018-May-15 15:29N 43°06' E 005°59'0 0.0
2018-May-15 14:58N 43°06' E 005°59'0 0.0
2018-May-15 14:28N 43°06' E 005°59'0 0.0
2018-May-15 13:59N 43°06' E 005°59'0 0.0
2018-May-15 13:28N 43°06' E 005°59'0 0.0
2018-May-15 12:58N 43°06' E 005°59'0 0.0
2018-May-15 12:26N 43°06' E 005°59'0 0.0
2018-May-15 11:55N 43°06' E 005°59'0 0.0
2018-May-15 11:28N 43°06' E 005°59'0 0.0
2018-May-15 10:58N 43°06' E 005°59'0 0.0
2018-May-15 10:20N 43°06' E 005°59'  
Track history (hours):
 
Tides and Currents Weather Stations Pressure Air Temp Water Temp Dewpoint Dewpoint Depression Visibility Wind Speed Wind Dir Waves Ship Positions

Atlantis Armona

Last reported at 2018-May-25 09:40 UTC. Time now 2018-May-27 03:06 UTC.
Position N 37°36' W 000°07'.

Length 92 m; draft 5.3 m.

Type: Tanker. MMSI: 248793000.

Date/timePositionNaut miles runAvg speedWind from/ knotsBaromVisibWave heightAir tempDewpointWater temp
2018-May-25 09:40N 37°36' W 000°07'511.0
2018-May-25 09:15N 37°36' W 000°12'311.2
2018-May-25 09:00N 37°35' W 000°16'510.7
2018-May-25 08:30N 37°35' W 000°23'510.1
2018-May-25 08:00N 37°35' W 000°29'4 8.8
2018-May-25 07:30N 37°32' W 000°33'5 9.3
2018-May-25 07:00N 37°31' W 000°39'4 8.8
2018-May-25 06:30N 37°31' W 000°44'4 8.5
2018-May-25 05:59N 37°31' W 000°50'2 4.3
2018-May-25 05:30N 37°31' W 000°52'4 8.7
2018-May-25 05:00N 37°32' W 000°58'3 0.2
2018-May-24 15:59N 37°34' W 000°60'1 2.3
2018-May-24 15:30N 37°33' W 001°01'1 2.8
2018-May-24 15:00N 37°32' W 001°02'1 2.3
2018-May-24 14:30N 37°32' W 001°04'2 3.3
2018-May-24 13:57N 37°33' W 001°06'4 0.6
2018-May-24 07:36N 37°32' W 001°01'110.5
2018-May-24 07:31N 37°32' W 000°60'510.2
2018-May-24 07:00N 37°31' W 000°53'510.3
2018-May-24 06:31N 37°31' W 000°47'5 9.8
2018-May-24 06:01N 37°32' W 000°41'5 9.5
2018-May-24 05:31N 37°33' W 000°35'5 9.7
2018-May-24 05:01N 37°37' W 000°31'5 9.9
2018-May-24 04:31N 37°41' W 000°28'5 9.9
2018-May-24 04:00N 37°45' W 000°24'511.0
2018-May-24 03:31N 37°50' W 000°20'611.2
2018-May-24 02:57N 37°55' W 000°16'511.3
2018-May-24 02:31N 37°59' W 000°13'611.4
2018-May-24 01:57N 38°05' W 000°08'711.3
2018-May-24 01:22N 38°10' W 000°04'510.7
2018-May-24 00:56N 38°14' W 000°00'611.0
2018-May-24 00:22N 38°19' E 000°04'411.2
2018-May-24 00:01N 38°23' E 000°06'611.1
2018-May-23 23:31N 38°27' E 000°11'611.1
2018-May-23 23:00N 38°32' E 000°15'511.1
2018-May-23 22:30N 38°37' E 000°18'1310.7
2018-May-23 21:17N 38°47' E 000°29'410.8
2018-May-23 20:56N 38°50' E 000°32'410.7
2018-May-23 20:31N 38°53' E 000°36'610.5
2018-May-23 19:59N 38°57' E 000°41'510.4
2018-May-23 19:31N 39°00' E 000°46'510.4
2018-May-23 19:00N 39°04' E 000°50'510.5
2018-May-23 18:31N 39°08' E 000°55'510.6
2018-May-23 18:01N 39°11' E 001°00'910.6
2018-May-23 17:11N 39°18' E 001°08'510.7
2018-May-23 16:44N 39°21' E 001°12'  
2018-May-21 08:14N 43°06' E 005°59'0 0.0
2018-May-21 06:34N 43°06' E 005°59'0 0.0
2018-May-21 06:08N 43°06' E 005°59'0 0.0
2018-May-21 05:59N 43°06' E 005°59'0 0.0
2018-May-21 05:25N 43°06' E 005°59'0 0.0
2018-May-21 04:31N 43°06' E 005°59'0 0.2
2018-May-21 04:28N 43°06' E 005°59'0 0.0
2018-May-21 02:37N 43°06' E 005°59'0 0.0
2018-May-21 02:08N 43°06' E 005°59'0 0.0
2018-May-21 01:55N 43°06' E 005°59'0 0.0
2018-May-21 01:29N 43°06' E 005°59'0 0.0
2018-May-21 00:28N 43°06' E 005°59'0 0.0
2018-May-20 23:59N 43°06' E 005°59'0 0.0
2018-May-20 23:28N 43°06' E 005°59'0 0.0
2018-May-20 22:58N 43°06' E 005°59'0 0.0
2018-May-20 22:28N 43°06' E 005°59'0 0.0
2018-May-20 21:58N 43°06' E 005°59'0 0.0
2018-May-20 21:25N 43°06' E 005°59'0 0.0
2018-May-20 20:58N 43°06' E 005°59'0 0.1
2018-May-20 20:26N 43°06' E 005°59'0 0.1
2018-May-20 19:55N 43°06' E 005°59'0 0.0
2018-May-20 19:19N 43°06' E 005°59'0 0.0
2018-May-20 18:58N 43°06' E 005°59'0 0.0
2018-May-20 18:25N 43°06' E 005°59'0 0.1
2018-May-20 17:58N 43°06' E 005°59'0 0.0
2018-May-20 17:28N 43°06' E 005°59'0 0.0
2018-May-20 16:58N 43°06' E 005°59'0 0.0
2018-May-20 16:25N 43°06' E 005°59'0 0.0
2018-May-20 15:58N 43°06' E 005°59'0 0.0
2018-May-20 15:28N 43°06' E 005°59'0 0.0
2018-May-20 14:58N 43°06' E 005°59'0 0.0
2018-May-20 14:13N 43°06' E 005°59'0 0.0
2018-May-20 13:52N 43°06' E 005°59'0 0.0
2018-May-20 13:28N 43°06' E 005°59'0 0.0
2018-May-20 12:58N 43°06' E 005°59'0 0.0
2018-May-20 12:19N 43°06' E 005°59'0 0.0
2018-May-20 11:43N 43°06' E 005°59'0 0.0
2018-May-20 11:17N 43°06' E 005°59'0 0.0
2018-May-20 10:52N 43°06' E 005°59'0 0.0
2018-May-20 10:28N 43°06' E 005°59'0 0.0
2018-May-20 09:25N 43°06' E 005°59'0 0.0
2018-May-20 08:55N 43°06' E 005°59'0 0.0
2018-May-20 08:28N 43°06' E 005°59'0 0.1
2018-May-20 07:58N 43°06' E 005°59'0 0.0
2018-May-20 07:22N 43°06' E 005°59'0 0.0
2018-May-20 06:49N 43°06' E 005°59'0 0.0
2018-May-20 03:08N 43°06' E 005°59'0 0.0
2018-May-20 01:50N 43°06' E 005°59'0 0.0
2018-May-20 01:29N 43°06' E 005°59'0 0.0
2018-May-20 00:09N 43°06' E 005°59'0 0.0
2018-May-19 23:50N 43°06' E 005°59'0 0.0
2018-May-19 23:29N 43°06' E 005°59'0 0.0
2018-May-19 22:59N 43°06' E 005°59'0 0.1
2018-May-19 22:29N 43°06' E 005°59'0 0.0
2018-May-19 20:02N 43°06' E 005°59'0 0.1
2018-May-19 19:56N 43°06' E 005°59'0 0.0
2018-May-19 19:28N 43°06' E 005°59'0 0.0
2018-May-19 18:58N 43°06' E 005°59'0 0.0
2018-May-19 18:29N 43°06' E 005°59'0 0.0
2018-May-19 17:20N 43°06' E 005°59'0 0.0
2018-May-19 16:49N 43°06' E 005°59'0 0.0
2018-May-19 16:01N 43°06' E 005°59'0 0.0
2018-May-19 15:59N 43°06' E 005°59'0 0.0
2018-May-19 15:13N 43°06' E 005°59'0 0.0
2018-May-19 14:59N 43°06' E 005°59'0 0.0
2018-May-19 14:28N 43°06' E 005°59'0 0.0
2018-May-19 13:59N 43°06' E 005°59'0 0.0
2018-May-19 11:49N 43°06' E 005°59'0 0.0
2018-May-19 11:28N 43°06' E 005°59'0 0.0
2018-May-19 10:55N 43°06' E 005°59'0 0.0
2018-May-19 10:26N 43°06' E 005°59'0 0.0
2018-May-19 09:43N 43°06' E 005°59'0 0.1
2018-May-19 09:20N 43°06' E 005°59'0 0.0
2018-May-19 08:44N 43°06' E 005°59'0 0.2
2018-May-19 08:26N 43°06' E 005°59'0 0.0
2018-May-19 07:59N 43°06' E 005°59'0 0.0
2018-May-19 07:28N 43°06' E 005°59'0 0.1
2018-May-19 06:46N 43°06' E 005°59'0 0.0
2018-May-19 06:11N 43°06' E 005°59'0 0.1
2018-May-19 05:56N 43°06' E 005°59'0 0.1
2018-May-19 05:23N 43°06' E 005°59'0 0.0
2018-May-19 04:58N 43°06' E 005°59'0 0.1
2018-May-19 04:13N 43°06' E 005°59'0 0.0
2018-May-19 03:55N 43°06' E 005°59'0 0.1
2018-May-19 03:17N 43°06' E 005°59'0 0.1
2018-May-19 02:59N 43°06' E 005°59'0 0.1
2018-May-19 02:29N 43°06' E 005°59'0 0.0
2018-May-19 00:38N 43°06' E 005°59'0 0.0
2018-May-19 00:26N 43°06' E 005°59'0 0.0
2018-May-18 23:19N 43°06' E 005°59'0 0.0
2018-May-18 22:56N 43°06' E 005°59'0 0.0
2018-May-18 22:20N 43°06' E 005°59'0 0.1
2018-May-18 21:59N 43°06' E 005°59'0 0.0
2018-May-18 21:29N 43°06' E 005°59'0 0.0
2018-May-18 20:55N 43°06' E 005°59'0 0.1
2018-May-18 20:29N 43°06' E 005°59'0 0.0
2018-May-18 19:58N 43°06' E 005°59'0 0.0
2018-May-18 19:29N 43°06' E 005°59'0 0.0
2018-May-18 18:50N 43°06' E 005°59'0 0.0
2018-May-18 18:23N 43°06' E 005°59'0 0.0
2018-May-18 17:56N 43°06' E 005°59'0 0.1
2018-May-18 17:29N 43°06' E 005°59'0 0.0
2018-May-18 16:55N 43°06' E 005°59'0 0.0
2018-May-18 16:29N 43°06' E 005°59'0 0.0
2018-May-18 15:59N 43°06' E 005°59'0 0.0
2018-May-18 15:19N 43°06' E 005°59'0 0.0
2018-May-18 14:55N 43°06' E 005°59'0 0.0
2018-May-18 14:29N 43°06' E 005°59'0 0.0
2018-May-18 13:58N 43°06' E 005°59'0 0.0
2018-May-18 13:29N 43°06' E 005°59'0 0.0
2018-May-18 11:20N 43°06' E 005°59'0 0.0
2018-May-18 08:44N 43°06' E 005°59'0 0.0
2018-May-18 07:46N 43°06' E 005°59'0 0.0
2018-May-18 06:58N 43°06' E 005°59'0 0.0
2018-May-18 06:17N 43°06' E 005°59'0 0.0
2018-May-18 05:40N 43°06' E 005°59'0 0.0
2018-May-18 05:28N 43°06' E 005°59'0 0.0
2018-May-18 04:55N 43°06' E 005°59'0 0.1
2018-May-18 04:25N 43°06' E 005°59'0 0.0
2018-May-18 03:56N 43°06' E 005°59'0 0.0
2018-May-18 03:25N 43°06' E 005°59'0 0.0
2018-May-18 02:56N 43°06' E 005°59'0 0.1
2018-May-18 02:23N 43°06' E 005°59'0 0.0
2018-May-18 01:58N 43°06' E 005°59'0 0.1
2018-May-18 01:28N 43°06' E 005°59'0 0.1
2018-May-18 00:43N 43°06' E 005°59'0 0.0
2018-May-18 00:23N 43°06' E 005°59'0 0.1
2018-May-17 23:58N 43°06' E 005°59'0 0.0
2018-May-17 23:25N 43°06' E 005°59'0 0.0
2018-May-17 22:53N 43°06' E 005°59'0 0.0
2018-May-17 22:13N 43°06' E 005°59'0 0.0
2018-May-17 21:58N 43°06' E 005°59'0 0.0
2018-May-17 21:28N 43°06' E 005°59'0 0.0
2018-May-17 20:17N 43°06' E 005°59'0 0.0
2018-May-17 19:32N 43°06' E 005°59'0 0.1
2018-May-17 19:28N 43°06' E 005°59'0 0.0
2018-May-17 18:59N 43°06' E 005°59'0 0.0
2018-May-17 18:25N 43°06' E 005°59'0 0.0
2018-May-17 17:58N 43°06' E 005°59'0 0.0
2018-May-17 17:17N 43°06' E 005°59'0 0.0
2018-May-17 16:59N 43°06' E 005°59'0 0.0
2018-May-17 16:08N 43°06' E 005°59'0 0.1
2018-May-17 15:59N 43°06' E 005°59'0 0.0
2018-May-17 15:28N 43°06' E 005°59'0 0.0
2018-May-17 14:55N 43°06' E 005°59'0 0.0
2018-May-17 14:28N 43°06' E 005°59'0 0.0
2018-May-17 13:56N 43°06' E 005°59'0 0.0
2018-May-17 13:29N 43°06' E 005°59'0 0.0
2018-May-17 06:49N 43°06' E 005°59'0 0.0
2018-May-17 06:19N 43°06' E 005°59'0 0.0
2018-May-17 04:20N 43°06' E 005°59'0 0.0
2018-May-17 02:43N 43°06' E 005°59'0 0.0
2018-May-17 02:29N 43°06' E 005°59'0 0.0
2018-May-17 01:56N 43°06' E 005°59'0 0.0
2018-May-17 01:23N 43°06' E 005°59'0 0.0
2018-May-17 00:59N 43°06' E 005°59'0 0.0
2018-May-17 00:14N 43°06' E 005°59'0 0.0
2018-May-16 23:38N 43°06' E 005°59'0 0.0
2018-May-16 21:37N 43°06' E 005°59'0 0.1
2018-May-16 21:26N 43°06' E 005°59'0 0.0
2018-May-16 20:23N 43°06' E 005°59'0 0.0
2018-May-16 19:58N 43°06' E 005°59'0 0.0
2018-May-16 16:52N 43°06' E 005°59'0 0.0
2018-May-16 16:29N 43°06' E 005°59'0 0.0
2018-May-16 15:50N 43°06' E 005°59'0 0.0
2018-May-16 15:26N 43°06' E 005°59'0 0.0
2018-May-16 14:58N 43°06' E 005°59'0 0.0
2018-May-16 14:28N 43°06' E 005°59'0 0.0
2018-May-16 13:11N 43°06' E 005°59'0 0.0
2018-May-16 12:53N 43°06' E 005°59'0 0.0
2018-May-16 12:23N 43°06' E 005°59'0 0.0
2018-May-16 11:59N 43°06' E 005°59'0 0.0
2018-May-16 11:26N 43°06' E 005°59'0 0.0
2018-May-16 10:59N 43°06' E 005°59'0 0.0
2018-May-16 10:26N 43°06' E 005°59'0 0.0
2018-May-16 09:56N 43°06' E 005°59'0 0.0
2018-May-16 08:31N 43°06' E 005°59'0 0.1
2018-May-16 08:29N 43°06' E 005°59'0 0.0
2018-May-16 07:59N 43°06' E 005°59'0 0.0
2018-May-16 06:10N 43°06' E 005°59'0 0.0
2018-May-16 05:55N 43°06' E 005°59'0 0.0
2018-May-16 05:29N 43°06' E 005°59'0 0.0
2018-May-16 04:55N 43°06' E 005°59'0 0.0
2018-May-16 04:11N 43°06' E 005°59'0 0.0
2018-May-16 03:53N 43°06' E 005°59'0 0.0
2018-May-16 03:29N 43°06' E 005°59'0 0.0
2018-May-16 02:59N 43°06' E 005°59'0 0.0
2018-May-16 02:29N 43°06' E 005°59'0 0.0
2018-May-16 01:59N 43°06' E 005°59'0 0.0
2018-May-16 01:25N 43°06' E 005°59'0 0.0
2018-May-15 19:56N 43°06' E 005°59'0 0.0
2018-May-15 18:50N 43°06' E 005°59'0 0.4
2018-May-15 18:28N 43°06' E 005°59'0 0.1
2018-May-15 17:56N 43°06' E 005°59'0 0.0
2018-May-15 17:29N 43°06' E 005°59'0 0.0
2018-May-15 16:58N 43°06' E 005°59'0 0.0
2018-May-15 16:28N 43°06' E 005°59'0 0.0
2018-May-15 15:52N 43°06' E 005°59'0 0.0
2018-May-15 15:29N 43°06' E 005°59'0 0.0
2018-May-15 14:58N 43°06' E 005°59'0 0.0
2018-May-15 14:28N 43°06' E 005°59'0 0.0
2018-May-15 13:59N 43°06' E 005°59'0 0.0
2018-May-15 13:28N 43°06' E 005°59'0 0.0
2018-May-15 12:58N 43°06' E 005°59'0 0.0
2018-May-15 12:26N 43°06' E 005°59'0 0.0
2018-May-15 11:55N 43°06' E 005°59'0 0.0
2018-May-15 11:28N 43°06' E 005°59'0 0.0
2018-May-15 10:58N 43°06' E 005°59'0 0.0
2018-May-15 10:20N 43°06' E 005°59'  

Dump ship's entire track history